sensor_id;sensor_type;location;lat;lon;timestamp;P1;durP1;ratioP1;P2;durP2;ratioP2
12359;SDS011;6244;51.460;7.090;2023-04-06T00:03:48;22.40;;;12.95;;
12359;SDS011;6244;51.460;7.090;2023-04-06T00:08:45;16.75;;;9.68;;
12359;SDS011;6244;51.460;7.090;2023-04-06T00:13:41;14.15;;;8.70;;
12359;SDS011;6244;51.460;7.090;2023-04-06T00:18:38;14.00;;;8.85;;
12359;SDS011;6244;51.460;7.090;2023-04-06T00:23:36;17.17;;;9.88;;
12359;SDS011;6244;51.460;7.090;2023-04-06T00:28:33;14.48;;;9.35;;
12359;SDS011;6244;51.460;7.090;2023-04-06T00:33:29;17.00;;;9.40;;
12359;SDS011;6244;51.460;7.090;2023-04-06T00:38:26;13.60;;;9.38;;
12359;SDS011;6244;51.460;7.090;2023-04-06T00:43:23;17.73;;;10.60;;
12359;SDS011;6244;51.460;7.090;2023-04-06T00:48:20;16.00;;;9.35;;
12359;SDS011;6244;51.460;7.090;2023-04-06T00:53:16;16.33;;;9.68;;
12359;SDS011;6244;51.460;7.090;2023-04-06T00:58:13;13.40;;;9.10;;
12359;SDS011;6244;51.460;7.090;2023-04-06T01:03:11;18.95;;;9.05;;
12359;SDS011;6244;51.460;7.090;2023-04-06T01:08:07;14.70;;;8.77;;
12359;SDS011;6244;51.460;7.090;2023-04-06T01:13:04;12.63;;;8.85;;
12359;SDS011;6244;51.460;7.090;2023-04-06T01:18:00;15.23;;;9.27;;
12359;SDS011;6244;51.460;7.090;2023-04-06T01:22:58;16.60;;;10.30;;
12359;SDS011;6244;51.460;7.090;2023-04-06T01:27:55;16.20;;;10.10;;
12359;SDS011;6244;51.460;7.090;2023-04-06T01:32:51;15.50;;;9.95;;
12359;SDS011;6244;51.460;7.090;2023-04-06T01:37:48;18.40;;;10.48;;
12359;SDS011;6244;51.460;7.090;2023-04-06T01:42:46;18.63;;;12.00;;
12359;SDS011;6244;51.460;7.090;2023-04-06T01:47:42;17.38;;;10.13;;
12359;SDS011;6244;51.460;7.090;2023-04-06T01:52:39;18.88;;;11.23;;
12359;SDS011;6244;51.460;7.090;2023-04-06T01:57:35;19.23;;;11.95;;
12359;SDS011;6244;51.460;7.090;2023-04-06T02:02:33;19.83;;;12.02;;
12359;SDS011;6244;51.460;7.090;2023-04-06T02:07:29;20.67;;;12.13;;
12359;SDS011;6244;51.460;7.090;2023-04-06T02:12:26;16.25;;;10.63;;
12359;SDS011;6244;51.460;7.090;2023-04-06T02:17:22;20.58;;;11.18;;
12359;SDS011;6244;51.460;7.090;2023-04-06T02:22:20;19.63;;;10.23;;
12359;SDS011;6244;51.460;7.090;2023-04-06T02:27:17;19.05;;;10.75;;
12359;SDS011;6244;51.460;7.090;2023-04-06T02:32:13;16.92;;;10.80;;
12359;SDS011;6244;51.460;7.090;2023-04-06T02:37:10;15.80;;;9.80;;
12359;SDS011;6244;51.460;7.090;2023-04-06T02:42:08;14.25;;;9.65;;
12359;SDS011;6244;51.460;7.090;2023-04-06T02:47:04;13.60;;;10.13;;
12359;SDS011;6244;51.460;7.090;2023-04-06T02:52:01;12.57;;;8.77;;
12359;SDS011;6244;51.460;7.090;2023-04-06T02:56:57;15.93;;;9.63;;
12359;SDS011;6244;51.460;7.090;2023-04-06T03:01:55;13.27;;;9.00;;
12359;SDS011;6244;51.460;7.090;2023-04-06T03:06:53;16.48;;;10.27;;
12359;SDS011;6244;51.460;7.090;2023-04-06T03:11:50;15.20;;;8.95;;
12359;SDS011;6244;51.460;7.090;2023-04-06T03:16:46;15.65;;;9.68;;
12359;SDS011;6244;51.460;7.090;2023-04-06T03:21:45;18.35;;;10.07;;
12359;SDS011;6244;51.460;7.090;2023-04-06T03:26:42;15.55;;;9.07;;
12359;SDS011;6244;51.460;7.090;2023-04-06T03:31:38;13.57;;;8.88;;
12359;SDS011;6244;51.460;7.090;2023-04-06T03:36:35;16.00;;;9.32;;
12359;SDS011;6244;51.460;7.090;2023-04-06T03:41:33;15.82;;;9.15;;
12359;SDS011;6244;51.460;7.090;2023-04-06T03:46:29;13.55;;;8.80;;
12359;SDS011;6244;51.460;7.090;2023-04-06T03:51:26;15.25;;;9.18;;
12359;SDS011;6244;51.460;7.090;2023-04-06T03:56:23;16.55;;;9.00;;
12359;SDS011;6244;51.460;7.090;2023-04-06T04:01:21;14.95;;;8.77;;
12359;SDS011;6244;51.460;7.090;2023-04-06T04:06:17;13.15;;;8.00;;
12359;SDS011;6244;51.460;7.090;2023-04-06T04:11:14;13.55;;;9.02;;
12359;SDS011;6244;51.460;7.090;2023-04-06T04:16:11;14.52;;;8.35;;
12359;SDS011;6244;51.460;7.090;2023-04-06T04:21:09;16.17;;;9.98;;
12359;SDS011;6244;51.460;7.090;2023-04-06T04:26:05;13.43;;;8.60;;
12359;SDS011;6244;51.460;7.090;2023-04-06T04:31:02;12.75;;;8.13;;
12359;SDS011;6244;51.460;7.090;2023-04-06T04:35:58;14.82;;;7.82;;
12359;SDS011;6244;51.460;7.090;2023-04-06T04:40:56;12.32;;;7.95;;
12359;SDS011;6244;51.460;7.090;2023-04-06T04:45:53;14.00;;;7.75;;
12359;SDS011;6244;51.460;7.090;2023-04-06T04:50:49;15.85;;;8.70;;
12359;SDS011;6244;51.460;7.090;2023-04-06T04:55:45;11.45;;;8.40;;
12359;SDS011;6244;51.460;7.090;2023-04-06T05:00:43;12.95;;;7.72;;
12359;SDS011;6244;51.460;7.090;2023-04-06T05:05:40;13.68;;;7.70;;
12359;SDS011;6244;51.460;7.090;2023-04-06T05:10:37;12.07;;;7.30;;
12359;SDS011;6244;51.460;7.090;2023-04-06T05:15:33;10.52;;;7.47;;
12359;SDS011;6244;51.460;7.090;2023-04-06T05:20:34;13.50;;;7.60;;
12359;SDS011;6244;51.460;7.090;2023-04-06T05:25:31;13.30;;;8.20;;
12359;SDS011;6244;51.460;7.090;2023-04-06T05:30:28;12.45;;;7.25;;
12359;SDS011;6244;51.460;7.090;2023-04-06T05:35:25;14.52;;;8.18;;
12359;SDS011;6244;51.460;7.090;2023-04-06T05:40:22;11.50;;;7.65;;
12359;SDS011;6244;51.460;7.090;2023-04-06T05:45:19;12.38;;;8.48;;
12359;SDS011;6244;51.460;7.090;2023-04-06T05:50:16;16.48;;;8.50;;
12359;SDS011;6244;51.460;7.090;2023-04-06T05:55:13;12.73;;;7.82;;
12359;SDS011;6244;51.460;7.090;2023-04-06T06:00:11;14.90;;;8.02;;
12359;SDS011;6244;51.460;7.090;2023-04-06T06:05:09;16.23;;;8.85;;
12359;SDS011;6244;51.460;7.090;2023-04-06T06:10:06;12.07;;;8.57;;
12359;SDS011;6244;51.460;7.090;2023-04-06T06:15:04;15.18;;;8.10;;
12359;SDS011;6244;51.460;7.090;2023-04-06T06:20:03;14.38;;;8.15;;
12359;SDS011;6244;51.460;7.090;2023-04-06T06:25:00;14.40;;;7.95;;
12359;SDS011;6244;51.460;7.090;2023-04-06T06:29:57;12.02;;;8.40;;
12359;SDS011;6244;51.460;7.090;2023-04-06T06:34:53;11.93;;;8.02;;
12359;SDS011;6244;51.460;7.090;2023-04-06T06:39:51;13.02;;;8.40;;
12359;SDS011;6244;51.460;7.090;2023-04-06T06:44:48;11.02;;;7.38;;
12359;SDS011;6244;51.460;7.090;2023-04-06T06:49:44;14.57;;;7.93;;
12359;SDS011;6244;51.460;7.090;2023-04-06T06:54:41;13.10;;;8.32;;
12359;SDS011;6244;51.460;7.090;2023-04-06T06:59:40;14.48;;;8.85;;
12359;SDS011;6244;51.460;7.090;2023-04-06T07:04:36;11.52;;;7.68;;
12359;SDS011;6244;51.460;7.090;2023-04-06T07:09:33;13.70;;;8.15;;
12359;SDS011;6244;51.460;7.090;2023-04-06T07:14:29;13.40;;;7.72;;
12359;SDS011;6244;51.460;7.090;2023-04-06T07:19:28;14.15;;;8.35;;
12359;SDS011;6244;51.460;7.090;2023-04-06T07:24:25;12.40;;;7.82;;
12359;SDS011;6244;51.460;7.090;2023-04-06T07:29:21;11.50;;;7.78;;
12359;SDS011;6244;51.460;7.090;2023-04-06T07:34:18;12.23;;;7.30;;
12359;SDS011;6244;51.460;7.090;2023-04-06T07:39:16;12.85;;;7.90;;
12359;SDS011;6244;51.460;7.090;2023-04-06T07:44:12;11.30;;;6.70;;
12359;SDS011;6244;51.460;7.090;2023-04-06T07:49:09;12.30;;;7.80;;
12359;SDS011;6244;51.460;7.090;2023-04-06T07:54:05;15.68;;;7.63;;
12359;SDS011;6244;51.460;7.090;2023-04-06T07:59:03;12.23;;;8.05;;
12359;SDS011;6244;51.460;7.090;2023-04-06T08:04:00;15.43;;;8.15;;
12359;SDS011;6244;51.460;7.090;2023-04-06T08:08:57;12.15;;;8.02;;
12359;SDS011;6244;51.460;7.090;2023-04-06T08:13:54;13.27;;;8.15;;
12359;SDS011;6244;51.460;7.090;2023-04-06T08:18:53;11.95;;;7.70;;
12359;SDS011;6244;51.460;7.090;2023-04-06T08:23:49;13.02;;;8.30;;
12359;SDS011;6244;51.460;7.090;2023-04-06T08:28:46;12.70;;;7.97;;
12359;SDS011;6244;51.460;7.090;2023-04-06T08:33:42;26.58;;;9.57;;
12359;SDS011;6244;51.460;7.090;2023-04-06T08:38:41;15.13;;;8.85;;
12359;SDS011;6244;51.460;7.090;2023-04-06T08:43:41;14.73;;;9.30;;
12359;SDS011;6244;51.460;7.090;2023-04-06T08:48:40;15.88;;;9.70;;
12359;SDS011;6244;51.460;7.090;2023-04-06T08:53:38;17.65;;;8.55;;
12359;SDS011;6244;51.460;7.090;2023-04-06T08:58:37;17.23;;;9.70;;
12359;SDS011;6244;51.460;7.090;2023-04-06T09:03:37;15.82;;;9.75;;
12359;SDS011;6244;51.460;7.090;2023-04-06T09:08:34;12.43;;;8.38;;
12359;SDS011;6244;51.460;7.090;2023-04-06T09:13:32;14.57;;;9.13;;
12359;SDS011;6244;51.460;7.090;2023-04-06T09:18:42;18.65;;;9.68;;
12359;SDS011;6244;51.460;7.090;2023-04-06T09:23:39;15.63;;;9.45;;
12359;SDS011;6244;51.460;7.090;2023-04-06T09:28:42;13.82;;;8.43;;
12359;SDS011;6244;51.460;7.090;2023-04-06T09:33:45;17.15;;;9.57;;
12359;SDS011;6244;51.460;7.090;2023-04-06T09:38:51;15.35;;;8.23;;
12359;SDS011;6244;51.460;7.090;2023-04-06T09:43:49;18.17;;;10.57;;
12359;SDS011;6244;51.460;7.090;2023-04-06T09:48:47;18.05;;;9.65;;
12359;SDS011;6244;51.460;7.090;2023-04-06T09:53:45;19.15;;;10.98;;
12359;SDS011;6244;51.460;7.090;2023-04-06T10:03:49;17.25;;;10.63;;
12359;SDS011;6244;51.460;7.090;2023-04-06T10:08:52;15.23;;;8.82;;
12359;SDS011;6244;51.460;7.090;2023-04-06T10:13:52;18.35;;;11.45;;
12359;SDS011;6244;51.460;7.090;2023-04-06T10:18:54;15.68;;;9.90;;
12359;SDS011;6244;51.460;7.090;2023-04-06T10:23:55;16.48;;;8.93;;
12359;SDS011;6244;51.460;7.090;2023-04-06T10:28:55;19.52;;;10.40;;
12359;SDS011;6244;51.460;7.090;2023-04-06T10:33:55;19.05;;;11.35;;
12359;SDS011;6244;51.460;7.090;2023-04-06T10:38:54;20.45;;;9.48;;
12359;SDS011;6244;51.460;7.090;2023-04-06T10:43:55;19.58;;;11.75;;
12359;SDS011;6244;51.460;7.090;2023-04-06T10:48:52;19.95;;;11.38;;
12359;SDS011;6244;51.460;7.090;2023-04-06T10:53:50;17.98;;;10.68;;
12359;SDS011;6244;51.460;7.090;2023-04-06T10:58:51;25.38;;;11.10;;
12359;SDS011;6244;51.460;7.090;2023-04-06T11:03:51;18.05;;;9.35;;
12359;SDS011;6244;51.460;7.090;2023-04-06T11:08:50;18.88;;;12.40;;
12359;SDS011;6244;51.460;7.090;2023-04-06T11:13:49;21.35;;;10.85;;
12359;SDS011;6244;51.460;7.090;2023-04-06T11:18:48;21.70;;;10.95;;
12359;SDS011;6244;51.460;7.090;2023-04-06T11:23:46;19.85;;;13.35;;
12359;SDS011;6244;51.460;7.090;2023-04-06T11:28:44;20.08;;;12.38;;
12359;SDS011;6244;51.460;7.090;2023-04-06T11:33:41;21.25;;;11.30;;
12359;SDS011;6244;51.460;7.090;2023-04-06T11:38:38;20.63;;;10.88;;
12359;SDS011;6244;51.460;7.090;2023-04-06T11:43:35;18.70;;;11.27;;
12359;SDS011;6244;51.460;7.090;2023-04-06T11:48:33;19.33;;;10.90;;
12359;SDS011;6244;51.460;7.090;2023-04-06T11:53:43;20.48;;;11.52;;
12359;SDS011;6244;51.460;7.090;2023-04-06T11:58:40;20.80;;;11.82;;
12359;SDS011;6244;51.460;7.090;2023-04-06T12:03:38;20.50;;;11.50;;
12359;SDS011;6244;51.460;7.090;2023-04-06T12:08:34;18.15;;;10.38;;
12359;SDS011;6244;51.460;7.090;2023-04-06T12:13:31;19.27;;;9.73;;
12359;SDS011;6244;51.460;7.090;2023-04-06T12:18:27;16.85;;;8.82;;
12359;SDS011;6244;51.460;7.090;2023-04-06T12:23:26;18.95;;;10.23;;
12359;SDS011;6244;51.460;7.090;2023-04-06T12:28:23;23.17;;;11.25;;
12359;SDS011;6244;51.460;7.090;2023-04-06T12:33:21;18.80;;;10.90;;
12359;SDS011;6244;51.460;7.090;2023-04-06T12:38:18;17.90;;;9.90;;
12359;SDS011;6244;51.460;7.090;2023-04-06T12:43:16;16.17;;;9.63;;
12359;SDS011;6244;51.460;7.090;2023-04-06T12:48:13;22.95;;;11.63;;
12359;SDS011;6244;51.460;7.090;2023-04-06T12:53:09;21.80;;;10.43;;
12359;SDS011;6244;51.460;7.090;2023-04-06T12:58:06;19.02;;;11.48;;
12359;SDS011;6244;51.460;7.090;2023-04-06T13:03:04;21.30;;;11.43;;
12359;SDS011;6244;51.460;7.090;2023-04-06T13:08:01;19.30;;;11.27;;
12359;SDS011;6244;51.460;7.090;2023-04-06T13:12:57;16.05;;;9.45;;
12359;SDS011;6244;51.460;7.090;2023-04-06T13:17:55;19.17;;;11.80;;
12359;SDS011;6244;51.460;7.090;2023-04-06T13:22:53;14.35;;;9.32;;
12359;SDS011;6244;51.460;7.090;2023-04-06T13:27:49;15.63;;;9.90;;
12359;SDS011;6244;51.460;7.090;2023-04-06T13:32:46;15.70;;;9.80;;
12359;SDS011;6244;51.460;7.090;2023-04-06T13:37:43;20.35;;;11.30;;
12359;SDS011;6244;51.460;7.090;2023-04-06T13:42:41;19.23;;;9.45;;
12359;SDS011;6244;51.460;7.090;2023-04-06T13:47:39;19.45;;;10.95;;
12359;SDS011;6244;51.460;7.090;2023-04-06T13:52:36;15.90;;;9.45;;
12359;SDS011;6244;51.460;7.090;2023-04-06T13:57:32;14.07;;;8.57;;
12359;SDS011;6244;51.460;7.090;2023-04-06T14:02:32;13.88;;;8.52;;
12359;SDS011;6244;51.460;7.090;2023-04-06T14:07:28;18.42;;;10.30;;
12359;SDS011;6244;51.460;7.090;2023-04-06T14:12:25;15.48;;;10.07;;
12359;SDS011;6244;51.460;7.090;2023-04-06T14:17:22;17.15;;;9.85;;
12359;SDS011;6244;51.460;7.090;2023-04-06T14:22:21;16.55;;;8.57;;
12359;SDS011;6244;51.460;7.090;2023-04-06T14:27:17;17.08;;;10.50;;
12359;SDS011;6244;51.460;7.090;2023-04-06T14:32:14;14.13;;;9.18;;
12359;SDS011;6244;51.460;7.090;2023-04-06T14:37:10;15.25;;;8.70;;
12359;SDS011;6244;51.460;7.090;2023-04-06T14:42:08;14.95;;;9.18;;
12359;SDS011;6244;51.460;7.090;2023-04-06T14:47:05;15.13;;;8.50;;
12359;SDS011;6244;51.460;7.090;2023-04-06T14:52:02;13.38;;;8.80;;
12359;SDS011;6244;51.460;7.090;2023-04-06T14:56:58;12.00;;;7.75;;
12359;SDS011;6244;51.460;7.090;2023-04-06T15:01:56;11.00;;;7.65;;
12359;SDS011;6244;51.460;7.090;2023-04-06T15:06:54;13.05;;;8.30;;
12359;SDS011;6244;51.460;7.090;2023-04-06T15:11:51;11.50;;;7.07;;
12359;SDS011;6244;51.460;7.090;2023-04-06T15:16:48;12.35;;;6.97;;
12359;SDS011;6244;51.460;7.090;2023-04-06T15:21:46;12.73;;;8.10;;
12359;SDS011;6244;51.460;7.090;2023-04-06T15:26:42;12.63;;;7.70;;
12359;SDS011;6244;51.460;7.090;2023-04-06T15:31:40;14.23;;;7.45;;
12359;SDS011;6244;51.460;7.090;2023-04-06T15:36:37;12.43;;;6.65;;
12359;SDS011;6244;51.460;7.090;2023-04-06T15:41:35;12.95;;;7.32;;
12359;SDS011;6244;51.460;7.090;2023-04-06T15:52:25;9.13;;;6.50;;
12359;SDS011;6244;51.460;7.090;2023-04-06T15:57:41;9.15;;;6.40;;
12359;SDS011;6244;51.460;7.090;2023-04-06T16:02:47;11.25;;;6.55;;
12359;SDS011;6244;51.460;7.090;2023-04-06T16:07:44;10.30;;;5.78;;
12359;SDS011;6244;51.460;7.090;2023-04-06T16:12:45;13.43;;;7.60;;
12359;SDS011;6244;51.460;7.090;2023-04-06T16:17:42;13.13;;;7.25;;
12359;SDS011;6244;51.460;7.090;2023-04-06T16:22:39;11.35;;;6.05;;
12359;SDS011;6244;51.460;7.090;2023-04-06T16:27:36;9.73;;;6.22;;
12359;SDS011;6244;51.460;7.090;2023-04-06T16:32:33;11.48;;;6.45;;
12359;SDS011;6244;51.460;7.090;2023-04-06T16:37:30;10.10;;;6.13;;
12359;SDS011;6244;51.460;7.090;2023-04-06T16:42:27;10.57;;;6.47;;
12359;SDS011;6244;51.460;7.090;2023-04-06T16:47:23;8.38;;;5.63;;
12359;SDS011;6244;51.460;7.090;2023-04-06T16:52:21;8.50;;;5.78;;
12359;SDS011;6244;51.460;7.090;2023-04-06T16:57:17;9.13;;;5.75;;
12359;SDS011;6244;51.460;7.090;2023-04-06T17:02:14;8.75;;;6.13;;
12359;SDS011;6244;51.460;7.090;2023-04-06T17:07:11;8.77;;;5.65;;
12359;SDS011;6244;51.460;7.090;2023-04-06T17:12:09;11.88;;;6.50;;
12359;SDS011;6244;51.460;7.090;2023-04-06T17:17:07;10.30;;;6.35;;
12359;SDS011;6244;51.460;7.090;2023-04-06T17:22:04;10.70;;;7.07;;
12359;SDS011;6244;51.460;7.090;2023-04-06T17:27:00;10.43;;;6.30;;
12359;SDS011;6244;51.460;7.090;2023-04-06T17:31:58;9.57;;;6.15;;
12359;SDS011;6244;51.460;7.090;2023-04-06T17:36:55;11.02;;;6.10;;
12359;SDS011;6244;51.460;7.090;2023-04-06T17:41:52;9.30;;;5.30;;
12359;SDS011;6244;51.460;7.090;2023-04-06T17:46:48;8.32;;;5.82;;
12359;SDS011;6244;51.460;7.090;2023-04-06T17:51:46;10.30;;;5.80;;
12359;SDS011;6244;51.460;7.090;2023-04-06T17:56:43;10.35;;;5.30;;
12359;SDS011;6244;51.460;7.090;2023-04-06T18:01:43;8.77;;;5.60;;
12359;SDS011;6244;51.460;7.090;2023-04-06T18:06:39;8.18;;;5.35;;
12359;SDS011;6244;51.460;7.090;2023-04-06T18:11:38;8.27;;;5.72;;
12359;SDS011;6244;51.460;7.090;2023-04-06T18:16:35;8.30;;;6.07;;
12359;SDS011;6244;51.460;7.090;2023-04-06T18:21:31;7.93;;;5.38;;
12359;SDS011;6244;51.460;7.090;2023-04-06T18:26:28;9.48;;;5.95;;
12359;SDS011;6244;51.460;7.090;2023-04-06T18:31:26;10.77;;;6.07;;
12359;SDS011;6244;51.460;7.090;2023-04-06T18:36:24;11.25;;;7.85;;
12359;SDS011;6244;51.460;7.090;2023-04-06T18:41:21;10.20;;;6.82;;
12359;SDS011;6244;51.460;7.090;2023-04-06T18:46:18;9.77;;;6.15;;
12359;SDS011;6244;51.460;7.090;2023-04-06T18:51:17;10.90;;;7.13;;
12359;SDS011;6244;51.460;7.090;2023-04-06T18:56:14;12.32;;;7.57;;
12359;SDS011;6244;51.460;7.090;2023-04-06T19:01:18;11.13;;;7.68;;
12359;SDS011;6244;51.460;7.090;2023-04-06T19:06:17;10.15;;;7.25;;
12359;SDS011;6244;51.460;7.090;2023-04-06T19:11:14;12.15;;;8.52;;
12359;SDS011;6244;51.460;7.090;2023-04-06T19:16:10;10.85;;;7.82;;
12359;SDS011;6244;51.460;7.090;2023-04-06T19:21:12;13.77;;;9.10;;
12359;SDS011;6244;51.460;7.090;2023-04-06T19:26:12;11.90;;;8.32;;
12359;SDS011;6244;51.460;7.090;2023-04-06T19:31:09;12.48;;;7.80;;
12359;SDS011;6244;51.460;7.090;2023-04-06T19:36:09;11.50;;;7.68;;
12359;SDS011;6244;51.460;7.090;2023-04-06T19:41:06;12.82;;;8.27;;
12359;SDS011;6244;51.460;7.090;2023-04-06T19:46:04;11.15;;;7.50;;
12359;SDS011;6244;51.460;7.090;2023-04-06T19:51:02;11.70;;;8.10;;
12359;SDS011;6244;51.460;7.090;2023-04-06T19:55:59;13.13;;;7.53;;
12359;SDS011;6244;51.460;7.090;2023-04-06T20:00:56;12.15;;;7.95;;
12359;SDS011;6244;51.460;7.090;2023-04-06T20:05:53;11.02;;;7.32;;
12359;SDS011;6244;51.460;7.090;2023-04-06T20:10:50;10.88;;;7.07;;
12359;SDS011;6244;51.460;7.090;2023-04-06T20:15:47;10.88;;;8.23;;
12359;SDS011;6244;51.460;7.090;2023-04-06T20:20:44;12.65;;;8.02;;
12359;SDS011;6244;51.460;7.090;2023-04-06T20:25:42;12.25;;;7.57;;
12359;SDS011;6244;51.460;7.090;2023-04-06T20:30:39;10.73;;;7.85;;
12359;SDS011;6244;51.460;7.090;2023-04-06T20:35:35;10.43;;;6.80;;
12359;SDS011;6244;51.460;7.090;2023-04-06T20:40:32;13.18;;;7.45;;
12359;SDS011;6244;51.460;7.090;2023-04-06T20:45:29;9.80;;;7.05;;
12359;SDS011;6244;51.460;7.090;2023-04-06T20:50:26;10.40;;;6.90;;
12359;SDS011;6244;51.460;7.090;2023-04-06T20:55:23;10.27;;;6.55;;
12359;SDS011;6244;51.460;7.090;2023-04-06T21:00:19;11.57;;;7.13;;
12359;SDS011;6244;51.460;7.090;2023-04-06T21:05:17;11.00;;;6.82;;
12359;SDS011;6244;51.460;7.090;2023-04-06T21:10:14;8.98;;;5.72;;
12359;SDS011;6244;51.460;7.090;2023-04-06T21:15:11;10.55;;;6.72;;
12359;SDS011;6244;51.460;7.090;2023-04-06T21:20:08;9.93;;;6.53;;
12359;SDS011;6244;51.460;7.090;2023-04-06T21:25:07;11.40;;;7.00;;
12359;SDS011;6244;51.460;7.090;2023-04-06T21:30:04;11.15;;;7.10;;
12359;SDS011;6244;51.460;7.090;2023-04-06T21:35:02;11.77;;;7.22;;
12359;SDS011;6244;51.460;7.090;2023-04-06T21:39:59;10.25;;;7.25;;
12359;SDS011;6244;51.460;7.090;2023-04-06T21:44:57;11.15;;;7.38;;
12359;SDS011;6244;51.460;7.090;2023-04-06T21:49:54;11.43;;;8.52;;
12359;SDS011;6244;51.460;7.090;2023-04-06T21:54:50;14.20;;;9.93;;
12359;SDS011;6244;51.460;7.090;2023-04-06T21:59:47;15.85;;;10.30;;
12359;SDS011;6244;51.460;7.090;2023-04-06T22:04:45;14.65;;;9.05;;
12359;SDS011;6244;51.460;7.090;2023-04-06T22:09:42;14.32;;;8.68;;
12359;SDS011;6244;51.460;7.090;2023-04-06T22:14:43;14.15;;;9.65;;
12359;SDS011;6244;51.460;7.090;2023-04-06T22:19:40;15.07;;;10.27;;
12359;SDS011;6244;51.460;7.090;2023-04-06T22:24:37;17.13;;;11.07;;
12359;SDS011;6244;51.460;7.090;2023-04-06T22:29:34;22.20;;;13.50;;
12359;SDS011;6244;51.460;7.090;2023-04-06T22:34:30;19.60;;;12.40;;
12359;SDS011;6244;51.460;7.090;2023-04-06T22:39:27;18.88;;;11.93;;
12359;SDS011;6244;51.460;7.090;2023-04-06T22:44:25;19.02;;;12.40;;
12359;SDS011;6244;51.460;7.090;2023-04-06T22:49:21;16.20;;;11.60;;
12359;SDS011;6244;51.460;7.090;2023-04-06T22:54:18;17.13;;;12.93;;
12359;SDS011;6244;51.460;7.090;2023-04-06T22:59:14;20.13;;;12.15;;
12359;SDS011;6244;51.460;7.090;2023-04-06T23:04:12;20.17;;;12.80;;
12359;SDS011;6244;51.460;7.090;2023-04-06T23:09:09;19.63;;;12.25;;
12359;SDS011;6244;51.460;7.090;2023-04-06T23:14:06;19.83;;;12.02;;
12359;SDS011;6244;51.460;7.090;2023-04-06T23:19:03;18.48;;;12.85;;
12359;SDS011;6244;51.460;7.090;2023-04-06T23:24:01;23.83;;;14.93;;
12359;SDS011;6244;51.460;7.090;2023-04-06T23:28:57;22.40;;;13.77;;
12359;SDS011;6244;51.460;7.090;2023-04-06T23:33:54;21.98;;;14.13;;
12359;SDS011;6244;51.460;7.090;2023-04-06T23:38:50;20.80;;;13.65;;
12359;SDS011;6244;51.460;7.090;2023-04-06T23:43:48;20.40;;;12.75;;
12359;SDS011;6244;51.460;7.090;2023-04-06T23:48:45;21.48;;;14.00;;
12359;SDS011;6244;51.460;7.090;2023-04-06T23:53:41;19.35;;;12.02;;
12359;SDS011;6244;51.460;7.090;2023-04-06T23:58:38;21.75;;;14.27;;
